sensor_id;sensor_type;location;lat;lon;timestamp;P1;durP1;ratioP1;P2;durP2;ratioP2
13651;SDS011;6899;51.546;6.912;2023-02-15T00:01:53;41.33;;;22.37;;
13651;SDS011;6899;51.546;6.912;2023-02-15T00:04:21;45.50;;;24.07;;
13651;SDS011;6899;51.546;6.912;2023-02-15T00:06:49;39.57;;;23.07;;
13651;SDS011;6899;51.546;6.912;2023-02-15T00:09:16;43.63;;;23.53;;
13651;SDS011;6899;51.546;6.912;2023-02-15T00:11:43;40.47;;;22.73;;
13651;SDS011;6899;51.546;6.912;2023-02-15T00:14:16;39.40;;;21.57;;
13651;SDS011;6899;51.546;6.912;2023-02-15T00:16:44;38.40;;;22.23;;
13651;SDS011;6899;51.546;6.912;2023-02-15T00:19:14;41.97;;;24.57;;
13651;SDS011;6899;51.546;6.912;2023-02-15T00:21:42;39.20;;;21.93;;
13651;SDS011;6899;51.546;6.912;2023-02-15T00:24:12;41.40;;;24.23;;
13651;SDS011;6899;51.546;6.912;2023-02-15T00:26:41;45.83;;;24.03;;
13651;SDS011;6899;51.546;6.912;2023-02-15T00:29:09;44.50;;;25.00;;
13651;SDS011;6899;51.546;6.912;2023-02-15T00:31:37;38.30;;;22.33;;
13651;SDS011;6899;51.546;6.912;2023-02-15T00:34:04;39.97;;;23.17;;
13651;SDS011;6899;51.546;6.912;2023-02-15T00:36:34;41.93;;;23.83;;
13651;SDS011;6899;51.546;6.912;2023-02-15T00:39:00;37.77;;;22.33;;
13651;SDS011;6899;51.546;6.912;2023-02-15T00:41:27;42.07;;;24.13;;
13651;SDS011;6899;51.546;6.912;2023-02-15T00:43:54;41.23;;;22.50;;
13651;SDS011;6899;51.546;6.912;2023-02-15T00:46:21;46.03;;;24.90;;
13651;SDS011;6899;51.546;6.912;2023-02-15T00:48:48;42.57;;;25.00;;
13651;SDS011;6899;51.546;6.912;2023-02-15T00:51:15;46.57;;;25.20;;
13651;SDS011;6899;51.546;6.912;2023-02-15T00:53:44;39.80;;;23.73;;
13651;SDS011;6899;51.546;6.912;2023-02-15T00:56:11;40.03;;;22.60;;
13651;SDS011;6899;51.546;6.912;2023-02-15T00:58:38;41.43;;;22.83;;
13651;SDS011;6899;51.546;6.912;2023-02-15T01:01:05;50.03;;;25.07;;
13651;SDS011;6899;51.546;6.912;2023-02-15T01:03:33;38.47;;;22.00;;
13651;SDS011;6899;51.546;6.912;2023-02-15T01:06:00;47.50;;;25.20;;
13651;SDS011;6899;51.546;6.912;2023-02-15T01:08:27;39.07;;;22.70;;
13651;SDS011;6899;51.546;6.912;2023-02-15T01:10:56;44.70;;;25.67;;
13651;SDS011;6899;51.546;6.912;2023-02-15T01:13:23;45.07;;;26.80;;
13651;SDS011;6899;51.546;6.912;2023-02-15T01:15:52;44.33;;;24.53;;
13651;SDS011;6899;51.546;6.912;2023-02-15T01:18:20;42.27;;;25.47;;
13651;SDS011;6899;51.546;6.912;2023-02-15T01:20:46;41.50;;;24.20;;
13651;SDS011;6899;51.546;6.912;2023-02-15T01:23:14;44.17;;;22.97;;
13651;SDS011;6899;51.546;6.912;2023-02-15T01:25:47;46.03;;;25.33;;
13651;SDS011;6899;51.546;6.912;2023-02-15T01:28:18;40.27;;;23.87;;
13651;SDS011;6899;51.546;6.912;2023-02-15T01:30:45;42.70;;;24.07;;
13651;SDS011;6899;51.546;6.912;2023-02-15T01:33:11;51.47;;;26.00;;
13651;SDS011;6899;51.546;6.912;2023-02-15T01:35:42;39.40;;;22.57;;
13651;SDS011;6899;51.546;6.912;2023-02-15T01:38:13;37.17;;;22.10;;
13651;SDS011;6899;51.546;6.912;2023-02-15T01:40:43;41.37;;;23.63;;
13651;SDS011;6899;51.546;6.912;2023-02-15T01:43:10;43.17;;;23.50;;
13651;SDS011;6899;51.546;6.912;2023-02-15T01:45:39;39.83;;;22.43;;
13651;SDS011;6899;51.546;6.912;2023-02-15T01:48:12;43.03;;;25.43;;
13651;SDS011;6899;51.546;6.912;2023-02-15T01:50:47;37.17;;;22.47;;
13651;SDS011;6899;51.546;6.912;2023-02-15T01:53:20;40.87;;;23.40;;
13651;SDS011;6899;51.546;6.912;2023-02-15T01:55:52;39.53;;;23.10;;
13651;SDS011;6899;51.546;6.912;2023-02-15T01:58:23;39.10;;;23.00;;
13651;SDS011;6899;51.546;6.912;2023-02-15T02:00:56;44.60;;;23.23;;
13651;SDS011;6899;51.546;6.912;2023-02-15T02:03:27;38.37;;;22.80;;
13651;SDS011;6899;51.546;6.912;2023-02-15T02:06:02;41.17;;;22.57;;
13651;SDS011;6899;51.546;6.912;2023-02-15T02:08:29;36.00;;;21.27;;
13651;SDS011;6899;51.546;6.912;2023-02-15T02:10:57;38.70;;;22.30;;
13651;SDS011;6899;51.546;6.912;2023-02-15T02:13:24;34.93;;;20.83;;
13651;SDS011;6899;51.546;6.912;2023-02-15T02:15:52;41.63;;;23.37;;
13651;SDS011;6899;51.546;6.912;2023-02-15T02:18:30;43.13;;;22.17;;
13651;SDS011;6899;51.546;6.912;2023-02-15T02:21:18;38.20;;;22.63;;
13651;SDS011;6899;51.546;6.912;2023-02-15T02:30:10;39.13;;;20.80;;
13651;SDS011;6899;51.546;6.912;2023-02-15T02:36:02;39.00;;;21.50;;
13651;SDS011;6899;51.546;6.912;2023-02-15T02:38:38;40.30;;;22.03;;
13651;SDS011;6899;51.546;6.912;2023-02-15T02:41:16;35.73;;;21.90;;
13651;SDS011;6899;51.546;6.912;2023-02-15T02:43:51;34.47;;;20.97;;
13651;SDS011;6899;51.546;6.912;2023-02-15T02:46:22;35.50;;;21.23;;
13651;SDS011;6899;51.546;6.912;2023-02-15T02:48:54;37.77;;;20.87;;
13651;SDS011;6899;51.546;6.912;2023-02-15T02:51:22;35.83;;;21.60;;
13651;SDS011;6899;51.546;6.912;2023-02-15T02:53:50;36.73;;;21.53;;
13651;SDS011;6899;51.546;6.912;2023-02-15T02:56:21;37.67;;;22.10;;
13651;SDS011;6899;51.546;6.912;2023-02-15T02:58:55;40.40;;;22.27;;
13651;SDS011;6899;51.546;6.912;2023-02-15T03:01:27;37.70;;;21.13;;
13651;SDS011;6899;51.546;6.912;2023-02-15T03:03:58;36.70;;;21.40;;
13651;SDS011;6899;51.546;6.912;2023-02-15T03:06:30;35.47;;;20.37;;
13651;SDS011;6899;51.546;6.912;2023-02-15T03:09:03;38.23;;;20.37;;
13651;SDS011;6899;51.546;6.912;2023-02-15T03:11:40;34.97;;;19.57;;
13651;SDS011;6899;51.546;6.912;2023-02-15T03:14:09;37.80;;;20.53;;
13651;SDS011;6899;51.546;6.912;2023-02-15T03:16:36;38.77;;;21.53;;
13651;SDS011;6899;51.546;6.912;2023-02-15T03:19:06;40.73;;;21.40;;
13651;SDS011;6899;51.546;6.912;2023-02-15T03:21:38;34.50;;;19.43;;
13651;SDS011;6899;51.546;6.912;2023-02-15T03:24:08;41.97;;;21.50;;
13651;SDS011;6899;51.546;6.912;2023-02-15T03:26:38;33.93;;;20.17;;
13651;SDS011;6899;51.546;6.912;2023-02-15T03:29:09;36.17;;;20.47;;
13651;SDS011;6899;51.546;6.912;2023-02-15T03:31:38;36.53;;;21.60;;
13651;SDS011;6899;51.546;6.912;2023-02-15T03:34:09;36.53;;;21.30;;
13651;SDS011;6899;51.546;6.912;2023-02-15T03:36:42;38.17;;;21.93;;
13651;SDS011;6899;51.546;6.912;2023-02-15T03:39:15;36.23;;;20.70;;
13651;SDS011;6899;51.546;6.912;2023-02-15T03:41:46;38.47;;;20.83;;
13651;SDS011;6899;51.546;6.912;2023-02-15T03:44:22;34.53;;;21.00;;
13651;SDS011;6899;51.546;6.912;2023-02-15T03:46:53;40.77;;;20.90;;
13651;SDS011;6899;51.546;6.912;2023-02-15T03:49:27;38.53;;;21.27;;
13651;SDS011;6899;51.546;6.912;2023-02-15T03:52:00;41.80;;;22.43;;
13651;SDS011;6899;51.546;6.912;2023-02-15T03:54:30;34.30;;;20.53;;
13651;SDS011;6899;51.546;6.912;2023-02-15T03:57:10;34.70;;;20.03;;
13651;SDS011;6899;51.546;6.912;2023-02-15T04:00:00;42.67;;;21.50;;
13651;SDS011;6899;51.546;6.912;2023-02-15T04:02:56;37.33;;;21.53;;
13651;SDS011;6899;51.546;6.912;2023-02-15T04:05:37;36.17;;;20.47;;
13651;SDS011;6899;51.546;6.912;2023-02-15T04:08:06;35.10;;;20.73;;
13651;SDS011;6899;51.546;6.912;2023-02-15T04:10:33;39.40;;;20.60;;
13651;SDS011;6899;51.546;6.912;2023-02-15T04:13:17;34.70;;;20.80;;
13651;SDS011;6899;51.546;6.912;2023-02-15T04:15:44;36.83;;;21.00;;
13651;SDS011;6899;51.546;6.912;2023-02-15T04:18:29;36.63;;;20.50;;
13651;SDS011;6899;51.546;6.912;2023-02-15T04:21:14;36.10;;;20.67;;
13651;SDS011;6899;51.546;6.912;2023-02-15T04:24:00;41.77;;;22.37;;
13651;SDS011;6899;51.546;6.912;2023-02-15T04:26:45;35.77;;;20.20;;
13651;SDS011;6899;51.546;6.912;2023-02-15T04:29:12;35.87;;;20.77;;
13651;SDS011;6899;51.546;6.912;2023-02-15T04:31:40;39.60;;;22.17;;
13651;SDS011;6899;51.546;6.912;2023-02-15T04:34:08;41.90;;;22.40;;
13651;SDS011;6899;51.546;6.912;2023-02-15T04:36:36;33.30;;;20.20;;
13651;SDS011;6899;51.546;6.912;2023-02-15T04:39:04;37.93;;;21.53;;
13651;SDS011;6899;51.546;6.912;2023-02-15T04:41:31;40.97;;;21.90;;
13651;SDS011;6899;51.546;6.912;2023-02-15T04:43:59;42.13;;;22.83;;
13651;SDS011;6899;51.546;6.912;2023-02-15T04:46:26;37.27;;;22.13;;
13651;SDS011;6899;51.546;6.912;2023-02-15T04:48:53;38.60;;;21.43;;
13651;SDS011;6899;51.546;6.912;2023-02-15T04:51:21;43.00;;;22.57;;
13651;SDS011;6899;51.546;6.912;2023-02-15T04:53:48;41.83;;;21.80;;
13651;SDS011;6899;51.546;6.912;2023-02-15T04:56:18;36.57;;;21.77;;
13651;SDS011;6899;51.546;6.912;2023-02-15T04:58:45;40.00;;;21.03;;
13651;SDS011;6899;51.546;6.912;2023-02-15T05:01:12;42.37;;;21.73;;
13651;SDS011;6899;51.546;6.912;2023-02-15T05:03:39;44.37;;;21.87;;
13651;SDS011;6899;51.546;6.912;2023-02-15T05:06:06;40.37;;;22.63;;
13651;SDS011;6899;51.546;6.912;2023-02-15T05:08:33;42.53;;;22.90;;
13651;SDS011;6899;51.546;6.912;2023-02-15T05:10:59;39.27;;;21.10;;
13651;SDS011;6899;51.546;6.912;2023-02-15T05:13:28;36.00;;;20.50;;
13651;SDS011;6899;51.546;6.912;2023-02-15T05:15:54;40.87;;;22.23;;
13651;SDS011;6899;51.546;6.912;2023-02-15T05:18:21;38.60;;;21.20;;
13651;SDS011;6899;51.546;6.912;2023-02-15T05:20:48;38.17;;;21.33;;
13651;SDS011;6899;51.546;6.912;2023-02-15T05:23:15;36.63;;;20.40;;
13651;SDS011;6899;51.546;6.912;2023-02-15T05:25:46;39.37;;;21.57;;
13651;SDS011;6899;51.546;6.912;2023-02-15T05:28:31;41.47;;;22.27;;
13651;SDS011;6899;51.546;6.912;2023-02-15T05:31:00;40.20;;;21.70;;
13651;SDS011;6899;51.546;6.912;2023-02-15T05:33:29;43.03;;;22.03;;
13651;SDS011;6899;51.546;6.912;2023-02-15T05:35:56;40.23;;;21.40;;
13651;SDS011;6899;51.546;6.912;2023-02-15T05:38:23;43.13;;;21.63;;
13651;SDS011;6899;51.546;6.912;2023-02-15T05:40:53;39.63;;;21.67;;
13651;SDS011;6899;51.546;6.912;2023-02-15T05:43:20;41.77;;;22.50;;
13651;SDS011;6899;51.546;6.912;2023-02-15T05:45:49;42.60;;;22.63;;
13651;SDS011;6899;51.546;6.912;2023-02-15T05:48:17;41.40;;;22.47;;
13651;SDS011;6899;51.546;6.912;2023-02-15T05:50:45;45.20;;;22.67;;
13651;SDS011;6899;51.546;6.912;2023-02-15T05:53:12;42.30;;;23.50;;
13651;SDS011;6899;51.546;6.912;2023-02-15T05:55:39;44.43;;;23.07;;
13651;SDS011;6899;51.546;6.912;2023-02-15T05:58:07;39.93;;;22.40;;
13651;SDS011;6899;51.546;6.912;2023-02-15T06:00:34;42.70;;;22.27;;
13651;SDS011;6899;51.546;6.912;2023-02-15T06:03:02;40.00;;;23.27;;
13651;SDS011;6899;51.546;6.912;2023-02-15T06:05:29;43.40;;;22.97;;
13651;SDS011;6899;51.546;6.912;2023-02-15T06:07:56;47.60;;;24.63;;
13651;SDS011;6899;51.546;6.912;2023-02-15T06:10:22;44.80;;;22.27;;
13651;SDS011;6899;51.546;6.912;2023-02-15T06:12:49;48.83;;;23.70;;
13651;SDS011;6899;51.546;6.912;2023-02-15T06:15:16;44.57;;;24.17;;
13651;SDS011;6899;51.546;6.912;2023-02-15T06:17:43;47.03;;;23.93;;
13651;SDS011;6899;51.546;6.912;2023-02-15T06:20:12;42.50;;;23.20;;
13651;SDS011;6899;51.546;6.912;2023-02-15T06:22:39;43.13;;;23.40;;
13651;SDS011;6899;51.546;6.912;2023-02-15T06:25:06;49.03;;;23.43;;
13651;SDS011;6899;51.546;6.912;2023-02-15T06:27:34;48.23;;;25.47;;
13651;SDS011;6899;51.546;6.912;2023-02-15T06:30:02;43.00;;;23.60;;
13651;SDS011;6899;51.546;6.912;2023-02-15T06:32:29;46.67;;;24.87;;
13651;SDS011;6899;51.546;6.912;2023-02-15T06:34:56;46.17;;;24.27;;
13651;SDS011;6899;51.546;6.912;2023-02-15T06:37:24;45.83;;;23.80;;
13651;SDS011;6899;51.546;6.912;2023-02-15T06:39:51;47.60;;;24.80;;
13651;SDS011;6899;51.546;6.912;2023-02-15T06:42:18;47.70;;;24.43;;
13651;SDS011;6899;51.546;6.912;2023-02-15T06:44:47;46.70;;;26.37;;
13651;SDS011;6899;51.546;6.912;2023-02-15T06:47:14;47.70;;;24.50;;
13651;SDS011;6899;51.546;6.912;2023-02-15T06:49:41;52.03;;;23.93;;
13651;SDS011;6899;51.546;6.912;2023-02-15T06:52:08;49.40;;;25.27;;
13651;SDS011;6899;51.546;6.912;2023-02-15T06:54:36;52.80;;;26.47;;
13651;SDS011;6899;51.546;6.912;2023-02-15T06:57:02;47.97;;;25.03;;
13651;SDS011;6899;51.546;6.912;2023-02-15T06:59:29;51.07;;;26.63;;
13651;SDS011;6899;51.546;6.912;2023-02-15T07:01:56;55.63;;;26.50;;
13651;SDS011;6899;51.546;6.912;2023-02-15T07:04:23;48.37;;;26.23;;
13651;SDS011;6899;51.546;6.912;2023-02-15T07:06:50;54.30;;;26.17;;
13651;SDS011;6899;51.546;6.912;2023-02-15T07:09:17;54.00;;;28.37;;
13651;SDS011;6899;51.546;6.912;2023-02-15T07:11:45;51.80;;;28.10;;
13651;SDS011;6899;51.546;6.912;2023-02-15T07:14:29;53.27;;;29.17;;
13651;SDS011;6899;51.546;6.912;2023-02-15T07:16:56;53.17;;;28.30;;
13651;SDS011;6899;51.546;6.912;2023-02-15T07:19:23;55.50;;;26.83;;
13651;SDS011;6899;51.546;6.912;2023-02-15T07:21:51;56.73;;;27.57;;
13651;SDS011;6899;51.546;6.912;2023-02-15T07:24:18;59.73;;;29.77;;
13651;SDS011;6899;51.546;6.912;2023-02-15T07:26:47;58.20;;;30.30;;
13651;SDS011;6899;51.546;6.912;2023-02-15T07:29:13;51.00;;;27.47;;
13651;SDS011;6899;51.546;6.912;2023-02-15T07:31:40;57.47;;;28.20;;
13651;SDS011;6899;51.546;6.912;2023-02-15T07:34:10;62.40;;;29.73;;
13651;SDS011;6899;51.546;6.912;2023-02-15T07:36:37;62.23;;;30.67;;
13651;SDS011;6899;51.546;6.912;2023-02-15T07:39:04;65.93;;;31.50;;
13651;SDS011;6899;51.546;6.912;2023-02-15T07:41:31;69.10;;;31.03;;
13651;SDS011;6899;51.546;6.912;2023-02-15T07:43:59;68.00;;;33.30;;
13651;SDS011;6899;51.546;6.912;2023-02-15T07:46:25;60.03;;;32.13;;
13651;SDS011;6899;51.546;6.912;2023-02-15T07:48:52;68.63;;;34.97;;
13651;SDS011;6899;51.546;6.912;2023-02-15T07:51:19;77.90;;;36.23;;
13651;SDS011;6899;51.546;6.912;2023-02-15T07:53:46;77.30;;;37.17;;
13651;SDS011;6899;51.546;6.912;2023-02-15T07:56:13;71.33;;;37.07;;
13651;SDS011;6899;51.546;6.912;2023-02-15T07:58:40;82.10;;;39.03;;
13651;SDS011;6899;51.546;6.912;2023-02-15T08:01:18;75.23;;;36.73;;
13651;SDS011;6899;51.546;6.912;2023-02-15T08:03:46;74.10;;;37.60;;
13651;SDS011;6899;51.546;6.912;2023-02-15T08:06:13;84.13;;;40.73;;
13651;SDS011;6899;51.546;6.912;2023-02-15T08:08:40;83.87;;;41.17;;
13651;SDS011;6899;51.546;6.912;2023-02-15T08:11:09;77.57;;;38.60;;
13651;SDS011;6899;51.546;6.912;2023-02-15T08:13:59;85.67;;;39.50;;
13651;SDS011;6899;51.546;6.912;2023-02-15T08:16:31;86.30;;;42.13;;
13651;SDS011;6899;51.546;6.912;2023-02-15T08:19:00;104.40;;;46.93;;
13651;SDS011;6899;51.546;6.912;2023-02-15T08:21:29;96.17;;;44.60;;
13651;SDS011;6899;51.546;6.912;2023-02-15T08:23:56;94.67;;;41.97;;
13651;SDS011;6899;51.546;6.912;2023-02-15T08:26:24;112.33;;;50.77;;
13651;SDS011;6899;51.546;6.912;2023-02-15T08:28:52;108.03;;;46.83;;
13651;SDS011;6899;51.546;6.912;2023-02-15T08:31:20;121.87;;;51.93;;
13651;SDS011;6899;51.546;6.912;2023-02-15T08:33:52;119.00;;;53.20;;
13651;SDS011;6899;51.546;6.912;2023-02-15T08:36:21;137.40;;;55.50;;
13651;SDS011;6899;51.546;6.912;2023-02-15T08:38:49;119.93;;;52.50;;
13651;SDS011;6899;51.546;6.912;2023-02-15T08:41:16;129.60;;;51.83;;
13651;SDS011;6899;51.546;6.912;2023-02-15T08:43:45;125.47;;;52.77;;
13651;SDS011;6899;51.546;6.912;2023-02-15T08:46:14;126.75;;;52.10;;
13651;SDS011;6899;51.546;6.912;2023-02-15T08:48:42;129.13;;;54.25;;
13651;SDS011;6899;51.546;6.912;2023-02-15T08:51:11;136.10;;;54.97;;
13651;SDS011;6899;51.546;6.912;2023-02-15T08:53:41;135.80;;;52.92;;
13651;SDS011;6899;51.546;6.912;2023-02-15T08:56:09;128.55;;;54.70;;
13651;SDS011;6899;51.546;6.912;2023-02-15T08:58:37;123.70;;;51.13;;
13651;SDS011;6899;51.546;6.912;2023-02-15T09:01:10;124.10;;;51.17;;
13651;SDS011;6899;51.546;6.912;2023-02-15T09:03:39;119.30;;;50.47;;
13651;SDS011;6899;51.546;6.912;2023-02-15T09:06:06;124.63;;;49.58;;
13651;SDS011;6899;51.546;6.912;2023-02-15T09:08:34;117.25;;;50.28;;
13651;SDS011;6899;51.546;6.912;2023-02-15T09:11:04;114.25;;;48.03;;
13651;SDS011;6899;51.546;6.912;2023-02-15T09:13:33;109.55;;;49.15;;
13651;SDS011;6899;51.546;6.912;2023-02-15T09:16:00;107.88;;;48.50;;
13651;SDS011;6899;51.546;6.912;2023-02-15T09:18:29;110.05;;;47.85;;
13651;SDS011;6899;51.546;6.912;2023-02-15T09:20:57;97.28;;;44.85;;
13651;SDS011;6899;51.546;6.912;2023-02-15T09:23:30;103.15;;;45.83;;
13651;SDS011;6899;51.546;6.912;2023-02-15T09:26:00;95.03;;;44.83;;
13651;SDS011;6899;51.546;6.912;2023-02-15T09:28:28;88.75;;;43.63;;
13651;SDS011;6899;51.546;6.912;2023-02-15T09:30:55;80.15;;;39.88;;
13651;SDS011;6899;51.546;6.912;2023-02-15T09:33:22;76.45;;;37.28;;
13651;SDS011;6899;51.546;6.912;2023-02-15T09:35:50;66.38;;;32.75;;
13651;SDS011;6899;51.546;6.912;2023-02-15T09:38:16;53.17;;;29.50;;
13651;SDS011;6899;51.546;6.912;2023-02-15T09:40:49;51.60;;;28.52;;
13651;SDS011;6899;51.546;6.912;2023-02-15T09:43:28;50.72;;;28.25;;
13651;SDS011;6899;51.546;6.912;2023-02-15T09:46:05;44.33;;;25.40;;
13651;SDS011;6899;51.546;6.912;2023-02-15T09:48:51;43.00;;;22.80;;
13651;SDS011;6899;51.546;6.912;2023-02-15T09:51:24;36.28;;;20.50;;
13651;SDS011;6899;51.546;6.912;2023-02-15T09:54:24;34.58;;;20.52;;
13651;SDS011;6899;51.546;6.912;2023-02-15T09:57:09;32.60;;;19.58;;
13651;SDS011;6899;51.546;6.912;2023-02-15T09:59:44;32.97;;;21.52;;
13651;SDS011;6899;51.546;6.912;2023-02-15T10:02:20;33.47;;;21.10;;
13651;SDS011;6899;51.546;6.912;2023-02-15T10:05:05;33.45;;;20.20;;
13651;SDS011;6899;51.546;6.912;2023-02-15T10:07:47;34.42;;;20.70;;
13651;SDS011;6899;51.546;6.912;2023-02-15T10:10:28;30.42;;;19.77;;
13651;SDS011;6899;51.546;6.912;2023-02-15T10:13:04;30.50;;;19.85;;
13651;SDS011;6899;51.546;6.912;2023-02-15T10:15:49;31.42;;;17.77;;
13651;SDS011;6899;51.546;6.912;2023-02-15T10:18:31;27.38;;;18.02;;
13651;SDS011;6899;51.546;6.912;2023-02-15T10:21:14;24.13;;;15.88;;
13651;SDS011;6899;51.546;6.912;2023-02-15T10:23:57;26.20;;;16.58;;
13651;SDS011;6899;51.546;6.912;2023-02-15T10:26:47;27.00;;;16.77;;
13651;SDS011;6899;51.546;6.912;2023-02-15T10:29:16;25.50;;;16.27;;
13651;SDS011;6899;51.546;6.912;2023-02-15T10:31:58;26.35;;;15.35;;
13651;SDS011;6899;51.546;6.912;2023-02-15T10:34:31;26.48;;;16.65;;
13651;SDS011;6899;51.546;6.912;2023-02-15T10:37:16;23.05;;;15.52;;
13651;SDS011;6899;51.546;6.912;2023-02-15T10:40:10;25.92;;;15.07;;
13651;SDS011;6899;51.546;6.912;2023-02-15T10:42:51;22.65;;;14.45;;
13651;SDS011;6899;51.546;6.912;2023-02-15T10:45:37;24.63;;;14.07;;
13651;SDS011;6899;51.546;6.912;2023-02-15T10:51:19;21.27;;;13.75;;
13651;SDS011;6899;51.546;6.912;2023-02-15T10:53:57;22.50;;;14.85;;
13651;SDS011;6899;51.546;6.912;2023-02-15T10:56:34;25.05;;;15.68;;
13651;SDS011;6899;51.546;6.912;2023-02-15T10:59:08;23.52;;;14.40;;
13651;SDS011;6899;51.546;6.912;2023-02-15T11:01:49;21.30;;;13.50;;
13651;SDS011;6899;51.546;6.912;2023-02-15T11:04:29;21.63;;;13.13;;
13651;SDS011;6899;51.546;6.912;2023-02-15T11:07:17;17.88;;;13.30;;
13651;SDS011;6899;51.546;6.912;2023-02-15T11:09:50;21.85;;;13.43;;
13651;SDS011;6899;51.546;6.912;2023-02-15T11:12:24;22.95;;;13.70;;
13651;SDS011;6899;51.546;6.912;2023-02-15T11:14:55;22.40;;;13.80;;
13651;SDS011;6899;51.546;6.912;2023-02-15T11:17:28;22.05;;;14.13;;
13651;SDS011;6899;51.546;6.912;2023-02-15T11:20:03;20.35;;;13.70;;
13651;SDS011;6899;51.546;6.912;2023-02-15T11:22:42;23.35;;;13.32;;
13651;SDS011;6899;51.546;6.912;2023-02-15T11:25:14;17.75;;;13.02;;
13651;SDS011;6899;51.546;6.912;2023-02-15T11:27:45;20.48;;;13.05;;
13651;SDS011;6899;51.546;6.912;2023-02-15T11:30:14;20.25;;;13.82;;
13651;SDS011;6899;51.546;6.912;2023-02-15T11:32:45;20.58;;;13.57;;
13651;SDS011;6899;51.546;6.912;2023-02-15T11:35:18;21.00;;;12.65;;
13651;SDS011;6899;51.546;6.912;2023-02-15T11:37:53;21.48;;;13.40;;
13651;SDS011;6899;51.546;6.912;2023-02-15T11:40:25;18.58;;;12.15;;
13651;SDS011;6899;51.546;6.912;2023-02-15T11:42:55;19.85;;;12.77;;
13651;SDS011;6899;51.546;6.912;2023-02-15T11:45:26;20.33;;;13.50;;
13651;SDS011;6899;51.546;6.912;2023-02-15T11:47:54;20.30;;;13.77;;
13651;SDS011;6899;51.546;6.912;2023-02-15T11:50:22;18.75;;;12.60;;
13651;SDS011;6899;51.546;6.912;2023-02-15T11:52:52;20.63;;;13.50;;
13651;SDS011;6899;51.546;6.912;2023-02-15T11:55:24;19.70;;;12.38;;
13651;SDS011;6899;51.546;6.912;2023-02-15T11:57:54;19.40;;;12.95;;
13651;SDS011;6899;51.546;6.912;2023-02-15T12:00:29;20.50;;;13.48;;
13651;SDS011;6899;51.546;6.912;2023-02-15T12:03:02;19.63;;;12.70;;
13651;SDS011;6899;51.546;6.912;2023-02-15T12:05:35;18.67;;;12.32;;
13651;SDS011;6899;51.546;6.912;2023-02-15T12:08:12;18.30;;;12.55;;
13651;SDS011;6899;51.546;6.912;2023-02-15T12:10:44;20.50;;;13.48;;
13651;SDS011;6899;51.546;6.912;2023-02-15T12:13:21;17.48;;;11.88;;
13651;SDS011;6899;51.546;6.912;2023-02-15T12:15:48;18.42;;;12.13;;
13651;SDS011;6899;51.546;6.912;2023-02-15T12:18:19;19.75;;;12.75;;
13651;SDS011;6899;51.546;6.912;2023-02-15T12:20:50;20.27;;;12.77;;
13651;SDS011;6899;51.546;6.912;2023-02-15T12:23:20;21.27;;;13.18;;
13651;SDS011;6899;51.546;6.912;2023-02-15T12:25:49;19.60;;;12.52;;
13651;SDS011;6899;51.546;6.912;2023-02-15T12:28:22;22.00;;;13.60;;
13651;SDS011;6899;51.546;6.912;2023-02-15T12:30:51;20.52;;;12.40;;
13651;SDS011;6899;51.546;6.912;2023-02-15T12:33:24;19.13;;;12.23;;
13651;SDS011;6899;51.546;6.912;2023-02-15T12:35:56;18.60;;;12.10;;
13651;SDS011;6899;51.546;6.912;2023-02-15T12:38:28;21.55;;;13.23;;
13651;SDS011;6899;51.546;6.912;2023-02-15T12:40:58;19.63;;;12.18;;
13651;SDS011;6899;51.546;6.912;2023-02-15T12:43:27;20.75;;;12.45;;
13651;SDS011;6899;51.546;6.912;2023-02-15T12:46:20;22.00;;;12.80;;
13651;SDS011;6899;51.546;6.912;2023-02-15T12:49:04;20.83;;;12.68;;
13651;SDS011;6899;51.546;6.912;2023-02-15T12:51:44;19.15;;;11.90;;
13651;SDS011;6899;51.546;6.912;2023-02-15T12:54:31;22.60;;;14.57;;
13651;SDS011;6899;51.546;6.912;2023-02-15T12:57:12;20.08;;;12.68;;
13651;SDS011;6899;51.546;6.912;2023-02-15T12:59:52;22.73;;;12.68;;
13651;SDS011;6899;51.546;6.912;2023-02-15T13:02:22;24.10;;;13.50;;
13651;SDS011;6899;51.546;6.912;2023-02-15T13:04:51;21.13;;;11.48;;
13651;SDS011;6899;51.546;6.912;2023-02-15T13:07:19;20.13;;;12.68;;
13651;SDS011;6899;51.546;6.912;2023-02-15T13:09:48;20.50;;;11.80;;
13651;SDS011;6899;51.546;6.912;2023-02-15T13:12:17;20.00;;;11.98;;
13651;SDS011;6899;51.546;6.912;2023-02-15T13:14:47;20.98;;;12.13;;
13651;SDS011;6899;51.546;6.912;2023-02-15T13:17:17;21.15;;;12.25;;
13651;SDS011;6899;51.546;6.912;2023-02-15T13:19:46;21.13;;;12.90;;
13651;SDS011;6899;51.546;6.912;2023-02-15T13:22:15;20.50;;;12.15;;
13651;SDS011;6899;51.546;6.912;2023-02-15T13:24:46;22.20;;;12.35;;
13651;SDS011;6899;51.546;6.912;2023-02-15T13:27:18;17.95;;;11.65;;
13651;SDS011;6899;51.546;6.912;2023-02-15T13:29:48;22.25;;;12.13;;
13651;SDS011;6899;51.546;6.912;2023-02-15T13:32:22;21.50;;;12.27;;
13651;SDS011;6899;51.546;6.912;2023-02-15T13:34:54;18.70;;;12.27;;
13651;SDS011;6899;51.546;6.912;2023-02-15T13:37:34;25.92;;;13.10;;
13651;SDS011;6899;51.546;6.912;2023-02-15T13:40:21;20.27;;;12.32;;
13651;SDS011;6899;51.546;6.912;2023-02-15T13:42:52;19.88;;;11.60;;
13651;SDS011;6899;51.546;6.912;2023-02-15T13:45:28;19.40;;;11.90;;
13651;SDS011;6899;51.546;6.912;2023-02-15T13:48:08;24.08;;;13.10;;
13651;SDS011;6899;51.546;6.912;2023-02-15T13:50:48;20.95;;;11.88;;
13651;SDS011;6899;51.546;6.912;2023-02-15T13:53:30;17.08;;;11.55;;
13651;SDS011;6899;51.546;6.912;2023-02-15T13:56:16;19.67;;;11.85;;
13651;SDS011;6899;51.546;6.912;2023-02-15T13:58:58;22.00;;;12.80;;
13651;SDS011;6899;51.546;6.912;2023-02-15T14:01:39;20.88;;;12.57;;
13651;SDS011;6899;51.546;6.912;2023-02-15T14:04:17;19.63;;;11.55;;
13651;SDS011;6899;51.546;6.912;2023-02-15T14:07:12;20.98;;;12.85;;
13651;SDS011;6899;51.546;6.912;2023-02-15T14:10:00;21.77;;;12.27;;
13651;SDS011;6899;51.546;6.912;2023-02-15T14:12:44;20.67;;;12.38;;
13651;SDS011;6899;51.546;6.912;2023-02-15T14:15:23;20.40;;;11.82;;
13651;SDS011;6899;51.546;6.912;2023-02-15T14:17:59;18.40;;;11.63;;
13651;SDS011;6899;51.546;6.912;2023-02-15T14:20:39;17.95;;;11.30;;
13651;SDS011;6899;51.546;6.912;2023-02-15T14:23:17;23.48;;;12.85;;
13651;SDS011;6899;51.546;6.912;2023-02-15T14:25:59;22.67;;;11.77;;
13651;SDS011;6899;51.546;6.912;2023-02-15T14:28:39;23.00;;;12.32;;
13651;SDS011;6899;51.546;6.912;2023-02-15T14:31:11;23.80;;;13.15;;
13651;SDS011;6899;51.546;6.912;2023-02-15T14:33:40;21.15;;;12.18;;
13651;SDS011;6899;51.546;6.912;2023-02-15T14:36:13;18.88;;;12.25;;
13651;SDS011;6899;51.546;6.912;2023-02-15T14:38:47;20.60;;;11.98;;
13651;SDS011;6899;51.546;6.912;2023-02-15T14:41:21;21.35;;;12.13;;
13651;SDS011;6899;51.546;6.912;2023-02-15T14:43:56;20.38;;;13.18;;
13651;SDS011;6899;51.546;6.912;2023-02-15T14:46:34;24.73;;;13.48;;
13651;SDS011;6899;51.546;6.912;2023-02-15T14:49:05;21.88;;;12.95;;
13651;SDS011;6899;51.546;6.912;2023-02-15T14:51:56;23.80;;;12.75;;
13651;SDS011;6899;51.546;6.912;2023-02-15T14:57:21;19.63;;;12.35;;
13651;SDS011;6899;51.546;6.912;2023-02-15T14:59:54;21.05;;;12.30;;
13651;SDS011;6899;51.546;6.912;2023-02-15T15:02:23;24.33;;;13.75;;
13651;SDS011;6899;51.546;6.912;2023-02-15T15:05:06;24.98;;;13.13;;
13651;SDS011;6899;51.546;6.912;2023-02-15T15:07:40;23.15;;;13.10;;
13651;SDS011;6899;51.546;6.912;2023-02-15T15:16:29;24.25;;;13.13;;
13651;SDS011;6899;51.546;6.912;2023-02-15T15:19:12;26.10;;;14.00;;
13651;SDS011;6899;51.546;6.912;2023-02-15T15:22:34;21.50;;;12.52;;
13651;SDS011;6899;51.546;6.912;2023-02-15T15:25:04;27.80;;;13.70;;